sensor_id;sensor_type;location;lat;lon;timestamp;P1;durP1;ratioP1;P2;durP2;ratioP2
79543;SDS011;68994;47.176;7.534;2023-06-22T00:01:55;10.80;;;6.13;;
79543;SDS011;68994;47.176;7.534;2023-06-22T00:04:22;11.00;;;6.65;;
79543;SDS011;68994;47.176;7.534;2023-06-22T00:06:48;11.77;;;6.82;;
79543;SDS011;68994;47.176;7.534;2023-06-22T00:09:15;9.05;;;5.30;;
79543;SDS011;68994;47.176;7.534;2023-06-22T00:11:42;10.57;;;6.25;;
79543;SDS011;68994;47.176;7.534;2023-06-22T00:14:10;8.52;;;5.95;;
79543;SDS011;68994;47.176;7.534;2023-06-22T00:16:36;9.82;;;6.43;;
79543;SDS011;68994;47.176;7.534;2023-06-22T00:19:03;16.58;;;8.52;;
79543;SDS011;68994;47.176;7.534;2023-06-22T00:21:30;10.07;;;6.35;;
79543;SDS011;68994;47.176;7.534;2023-06-22T00:23:57;13.43;;;7.35;;
79543;SDS011;68994;47.176;7.534;2023-06-22T00:26:23;12.27;;;7.13;;
79543;SDS011;68994;47.176;7.534;2023-06-22T00:28:50;12.60;;;6.72;;
79543;SDS011;68994;47.176;7.534;2023-06-22T00:31:18;13.07;;;6.90;;
79543;SDS011;68994;47.176;7.534;2023-06-22T00:33:45;9.20;;;6.28;;
79543;SDS011;68994;47.176;7.534;2023-06-22T00:36:12;10.68;;;6.38;;
79543;SDS011;68994;47.176;7.534;2023-06-22T00:38:41;10.25;;;6.07;;
79543;SDS011;68994;47.176;7.534;2023-06-22T00:41:07;9.48;;;5.97;;
79543;SDS011;68994;47.176;7.534;2023-06-22T00:43:34;10.65;;;6.88;;
79543;SDS011;68994;47.176;7.534;2023-06-22T00:46:01;11.82;;;5.97;;
79543;SDS011;68994;47.176;7.534;2023-06-22T00:48:29;11.00;;;5.53;;
79543;SDS011;68994;47.176;7.534;2023-06-22T00:50:56;10.90;;;6.53;;
79543;SDS011;68994;47.176;7.534;2023-06-22T00:53:22;10.38;;;6.75;;
79543;SDS011;68994;47.176;7.534;2023-06-22T00:55:49;11.23;;;6.95;;
79543;SDS011;68994;47.176;7.534;2023-06-22T00:58:17;14.27;;;6.95;;
79543;SDS011;68994;47.176;7.534;2023-06-22T01:00:47;11.88;;;7.07;;
79543;SDS011;68994;47.176;7.534;2023-06-22T01:03:13;11.00;;;6.82;;
79543;SDS011;68994;47.176;7.534;2023-06-22T01:05:43;10.18;;;6.00;;
79543;SDS011;68994;47.176;7.534;2023-06-22T01:08:23;9.60;;;6.43;;
79543;SDS011;68994;47.176;7.534;2023-06-22T01:10:58;9.00;;;5.80;;
79543;SDS011;68994;47.176;7.534;2023-06-22T01:13:30;8.40;;;5.90;;
79543;SDS011;68994;47.176;7.534;2023-06-22T01:16:02;11.52;;;6.57;;
79543;SDS011;68994;47.176;7.534;2023-06-22T01:18:31;12.75;;;6.75;;
79543;SDS011;68994;47.176;7.534;2023-06-22T01:21:03;11.30;;;6.05;;
79543;SDS011;68994;47.176;7.534;2023-06-22T01:23:36;10.82;;;5.47;;
79543;SDS011;68994;47.176;7.534;2023-06-22T01:26:17;10.60;;;6.50;;
79543;SDS011;68994;47.176;7.534;2023-06-22T01:28:47;10.48;;;6.60;;
79543;SDS011;68994;47.176;7.534;2023-06-22T01:31:16;10.95;;;6.55;;
79543;SDS011;68994;47.176;7.534;2023-06-22T01:33:44;11.50;;;6.28;;
79543;SDS011;68994;47.176;7.534;2023-06-22T01:36:14;9.93;;;6.13;;
79543;SDS011;68994;47.176;7.534;2023-06-22T01:38:43;11.23;;;6.30;;
79543;SDS011;68994;47.176;7.534;2023-06-22T01:41:10;11.05;;;6.22;;
79543;SDS011;68994;47.176;7.534;2023-06-22T01:43:37;14.32;;;7.28;;
79543;SDS011;68994;47.176;7.534;2023-06-22T01:46:06;8.77;;;6.45;;
79543;SDS011;68994;47.176;7.534;2023-06-22T01:48:33;9.80;;;6.72;;
79543;SDS011;68994;47.176;7.534;2023-06-22T01:51:00;13.48;;;6.80;;
79543;SDS011;68994;47.176;7.534;2023-06-22T01:53:27;10.38;;;6.65;;
79543;SDS011;68994;47.176;7.534;2023-06-22T01:55:54;10.70;;;6.10;;
79543;SDS011;68994;47.176;7.534;2023-06-22T02:00:51;12.75;;;6.95;;
79543;SDS011;68994;47.176;7.534;2023-06-22T02:03:26;9.98;;;6.45;;
79543;SDS011;68994;47.176;7.534;2023-06-22T02:06:01;14.52;;;6.93;;
79543;SDS011;68994;47.176;7.534;2023-06-22T02:08:30;15.90;;;7.18;;
79543;SDS011;68994;47.176;7.534;2023-06-22T02:10:59;12.32;;;6.57;;
79543;SDS011;68994;47.176;7.534;2023-06-22T02:13:28;11.30;;;6.40;;
79543;SDS011;68994;47.176;7.534;2023-06-22T02:15:55;10.80;;;6.75;;
79543;SDS011;68994;47.176;7.534;2023-06-22T02:18:23;12.40;;;5.85;;
79543;SDS011;68994;47.176;7.534;2023-06-22T02:20:50;9.90;;;5.88;;
79543;SDS011;68994;47.176;7.534;2023-06-22T02:23:17;10.88;;;5.75;;
79543;SDS011;68994;47.176;7.534;2023-06-22T02:25:45;9.85;;;6.47;;
79543;SDS011;68994;47.176;7.534;2023-06-22T02:28:12;10.40;;;6.43;;
79543;SDS011;68994;47.176;7.534;2023-06-22T02:30:38;10.73;;;6.15;;
79543;SDS011;68994;47.176;7.534;2023-06-22T02:33:05;9.48;;;5.78;;
79543;SDS011;68994;47.176;7.534;2023-06-22T02:35:33;11.63;;;6.45;;
79543;SDS011;68994;47.176;7.534;2023-06-22T02:38:00;8.07;;;5.55;;
79543;SDS011;68994;47.176;7.534;2023-06-22T02:42:55;11.27;;;6.05;;
79543;SDS011;68994;47.176;7.534;2023-06-22T02:45:23;9.40;;;6.13;;
79543;SDS011;68994;47.176;7.534;2023-06-22T02:47:49;11.02;;;5.43;;
79543;SDS011;68994;47.176;7.534;2023-06-22T02:50:16;12.55;;;6.65;;
79543;SDS011;68994;47.176;7.534;2023-06-22T02:52:44;9.57;;;6.72;;
79543;SDS011;68994;47.176;7.534;2023-06-22T02:55:10;10.20;;;6.68;;
79543;SDS011;68994;47.176;7.534;2023-06-22T02:57:37;9.70;;;5.70;;
79543;SDS011;68994;47.176;7.534;2023-06-22T03:00:09;13.80;;;5.70;;
79543;SDS011;68994;47.176;7.534;2023-06-22T03:02:41;12.40;;;6.85;;
79543;SDS011;68994;47.176;7.534;2023-06-22T03:05:08;9.23;;;5.50;;
79543;SDS011;68994;47.176;7.534;2023-06-22T03:07:39;9.77;;;6.25;;
79543;SDS011;68994;47.176;7.534;2023-06-22T03:10:08;10.82;;;6.63;;
79543;SDS011;68994;47.176;7.534;2023-06-22T03:12:36;12.25;;;6.13;;
79543;SDS011;68994;47.176;7.534;2023-06-22T03:15:03;9.45;;;5.47;;
79543;SDS011;68994;47.176;7.534;2023-06-22T03:17:31;11.68;;;6.18;;
79543;SDS011;68994;47.176;7.534;2023-06-22T03:19:57;9.45;;;5.38;;
79543;SDS011;68994;47.176;7.534;2023-06-22T03:22:24;10.20;;;6.30;;
79543;SDS011;68994;47.176;7.534;2023-06-22T03:24:50;11.40;;;5.63;;
79543;SDS011;68994;47.176;7.534;2023-06-22T03:27:18;10.57;;;5.38;;
79543;SDS011;68994;47.176;7.534;2023-06-22T03:29:45;9.35;;;5.88;;
79543;SDS011;68994;47.176;7.534;2023-06-22T03:32:12;9.60;;;5.32;;
79543;SDS011;68994;47.176;7.534;2023-06-22T03:34:38;7.88;;;5.07;;
79543;SDS011;68994;47.176;7.534;2023-06-22T03:37:05;10.80;;;5.47;;
79543;SDS011;68994;47.176;7.534;2023-06-22T03:39:31;10.90;;;5.60;;
79543;SDS011;68994;47.176;7.534;2023-06-22T03:41:58;14.70;;;5.85;;
79543;SDS011;68994;47.176;7.534;2023-06-22T03:44:26;10.68;;;5.50;;
79543;SDS011;68994;47.176;7.534;2023-06-22T03:46:53;11.00;;;6.10;;
79543;SDS011;68994;47.176;7.534;2023-06-22T03:49:19;10.25;;;6.18;;
79543;SDS011;68994;47.176;7.534;2023-06-22T03:51:46;11.68;;;5.93;;
79543;SDS011;68994;47.176;7.534;2023-06-22T03:54:13;9.73;;;5.68;;
79543;SDS011;68994;47.176;7.534;2023-06-22T03:56:39;10.32;;;6.35;;
79543;SDS011;68994;47.176;7.534;2023-06-22T03:59:06;8.25;;;5.20;;
79543;SDS011;68994;47.176;7.534;2023-06-22T04:01:34;13.40;;;6.32;;
79543;SDS011;68994;47.176;7.534;2023-06-22T04:04:01;8.98;;;5.30;;
79543;SDS011;68994;47.176;7.534;2023-06-22T04:06:28;11.07;;;5.90;;
79543;SDS011;68994;47.176;7.534;2023-06-22T04:08:55;10.50;;;5.50;;
79543;SDS011;68994;47.176;7.534;2023-06-22T04:11:22;8.65;;;5.40;;
79543;SDS011;68994;47.176;7.534;2023-06-22T04:13:48;10.77;;;5.97;;
79543;SDS011;68994;47.176;7.534;2023-06-22T04:18:44;10.70;;;5.72;;
79543;SDS011;68994;47.176;7.534;2023-06-22T04:21:10;10.32;;;6.03;;
79543;SDS011;68994;47.176;7.534;2023-06-22T04:23:37;10.60;;;6.28;;
79543;SDS011;68994;47.176;7.534;2023-06-22T04:26:04;10.40;;;5.88;;
79543;SDS011;68994;47.176;7.534;2023-06-22T04:28:31;11.63;;;6.90;;
79543;SDS011;68994;47.176;7.534;2023-06-22T04:31:00;12.25;;;7.32;;
79543;SDS011;68994;47.176;7.534;2023-06-22T04:33:27;12.00;;;7.15;;
79543;SDS011;68994;47.176;7.534;2023-06-22T04:35:57;12.13;;;6.90;;
79543;SDS011;68994;47.176;7.534;2023-06-22T04:38:26;13.40;;;7.25;;
79543;SDS011;68994;47.176;7.534;2023-06-22T04:40:53;12.25;;;6.55;;
79543;SDS011;68994;47.176;7.534;2023-06-22T04:43:19;11.38;;;7.05;;
79543;SDS011;68994;47.176;7.534;2023-06-22T04:45:46;15.73;;;6.82;;
79543;SDS011;68994;47.176;7.534;2023-06-22T04:48:17;16.77;;;6.97;;
79543;SDS011;68994;47.176;7.534;2023-06-22T04:50:44;11.68;;;6.80;;
79543;SDS011;68994;47.176;7.534;2023-06-22T04:53:12;16.30;;;7.65;;
79543;SDS011;68994;47.176;7.534;2023-06-22T04:55:39;14.55;;;7.53;;
79543;SDS011;68994;47.176;7.534;2023-06-22T04:58:06;10.82;;;6.70;;
79543;SDS011;68994;47.176;7.534;2023-06-22T05:00:33;11.98;;;7.18;;
79543;SDS011;68994;47.176;7.534;2023-06-22T05:03:01;14.13;;;6.82;;
79543;SDS011;68994;47.176;7.534;2023-06-22T05:05:28;10.98;;;7.20;;
79543;SDS011;68994;47.176;7.534;2023-06-22T05:07:56;12.23;;;7.40;;
79543;SDS011;68994;47.176;7.534;2023-06-22T05:10:26;10.07;;;6.47;;
79543;SDS011;68994;47.176;7.534;2023-06-22T05:12:53;12.15;;;6.97;;
79543;SDS011;68994;47.176;7.534;2023-06-22T05:15:20;13.10;;;6.75;;
79543;SDS011;68994;47.176;7.534;2023-06-22T05:17:48;11.65;;;6.88;;
79543;SDS011;68994;47.176;7.534;2023-06-22T05:20:14;11.23;;;6.95;;
79543;SDS011;68994;47.176;7.534;2023-06-22T05:22:43;14.68;;;7.80;;
79543;SDS011;68994;47.176;7.534;2023-06-22T05:25:10;11.23;;;6.88;;
79543;SDS011;68994;47.176;7.534;2023-06-22T05:27:38;10.73;;;6.78;;
79543;SDS011;68994;47.176;7.534;2023-06-22T05:30:06;10.95;;;7.20;;
79543;SDS011;68994;47.176;7.534;2023-06-22T05:32:33;13.93;;;7.18;;
79543;SDS011;68994;47.176;7.534;2023-06-22T05:35:00;16.52;;;7.93;;
79543;SDS011;68994;47.176;7.534;2023-06-22T05:37:27;14.30;;;7.80;;
79543;SDS011;68994;47.176;7.534;2023-06-22T05:39:54;14.57;;;7.47;;
79543;SDS011;68994;47.176;7.534;2023-06-22T05:42:22;14.38;;;7.40;;
79543;SDS011;68994;47.176;7.534;2023-06-22T05:44:51;12.98;;;7.55;;
79543;SDS011;68994;47.176;7.534;2023-06-22T05:47:18;14.23;;;7.55;;
79543;SDS011;68994;47.176;7.534;2023-06-22T05:49:45;14.18;;;7.63;;
79543;SDS011;68994;47.176;7.534;2023-06-22T05:52:11;12.77;;;7.95;;
79543;SDS011;68994;47.176;7.534;2023-06-22T05:54:38;12.23;;;7.45;;
79543;SDS011;68994;47.176;7.534;2023-06-22T05:57:06;11.23;;;7.32;;
79543;SDS011;68994;47.176;7.534;2023-06-22T05:59:33;12.30;;;7.47;;
79543;SDS011;68994;47.176;7.534;2023-06-22T06:02:01;14.50;;;7.03;;
79543;SDS011;68994;47.176;7.534;2023-06-22T06:04:28;12.85;;;7.85;;
79543;SDS011;68994;47.176;7.534;2023-06-22T06:06:54;17.17;;;9.00;;
79543;SDS011;68994;47.176;7.534;2023-06-22T06:09:21;16.42;;;8.18;;
79543;SDS011;68994;47.176;7.534;2023-06-22T06:11:47;14.07;;;8.52;;
79543;SDS011;68994;47.176;7.534;2023-06-22T06:14:14;12.68;;;7.57;;
79543;SDS011;68994;47.176;7.534;2023-06-22T06:16:42;14.00;;;8.07;;
79543;SDS011;68994;47.176;7.534;2023-06-22T06:19:10;15.13;;;8.00;;
79543;SDS011;68994;47.176;7.534;2023-06-22T06:21:36;12.65;;;7.10;;
79543;SDS011;68994;47.176;7.534;2023-06-22T06:24:03;13.20;;;6.68;;
79543;SDS011;68994;47.176;7.534;2023-06-22T06:26:30;13.45;;;6.60;;
79543;SDS011;68994;47.176;7.534;2023-06-22T06:28:59;13.07;;;7.95;;
79543;SDS011;68994;47.176;7.534;2023-06-22T06:31:27;11.65;;;7.10;;
79543;SDS011;68994;47.176;7.534;2023-06-22T06:33:54;15.85;;;8.57;;
79543;SDS011;68994;47.176;7.534;2023-06-22T06:36:22;14.15;;;7.00;;
79543;SDS011;68994;47.176;7.534;2023-06-22T06:38:49;14.75;;;7.82;;
79543;SDS011;68994;47.176;7.534;2023-06-22T06:41:15;12.52;;;7.30;;
79543;SDS011;68994;47.176;7.534;2023-06-22T06:43:42;12.88;;;7.32;;
79543;SDS011;68994;47.176;7.534;2023-06-22T06:46:09;11.85;;;7.10;;
79543;SDS011;68994;47.176;7.534;2023-06-22T06:48:36;12.68;;;6.70;;
79543;SDS011;68994;47.176;7.534;2023-06-22T06:51:03;15.55;;;7.20;;
79543;SDS011;68994;47.176;7.534;2023-06-22T06:53:30;13.73;;;7.30;;
79543;SDS011;68994;47.176;7.534;2023-06-22T06:55:57;18.30;;;7.53;;
79543;SDS011;68994;47.176;7.534;2023-06-22T06:58:24;12.00;;;8.00;;
79543;SDS011;68994;47.176;7.534;2023-06-22T07:00:50;13.27;;;7.60;;
79543;SDS011;68994;47.176;7.534;2023-06-22T07:03:17;14.75;;;8.18;;
79543;SDS011;68994;47.176;7.534;2023-06-22T07:05:43;16.55;;;9.45;;
79543;SDS011;68994;47.176;7.534;2023-06-22T07:08:10;12.82;;;7.85;;
79543;SDS011;68994;47.176;7.534;2023-06-22T07:10:38;15.63;;;8.68;;
79543;SDS011;68994;47.176;7.534;2023-06-22T07:13:04;14.52;;;7.97;;
79543;SDS011;68994;47.176;7.534;2023-06-22T07:15:31;19.13;;;9.75;;
79543;SDS011;68994;47.176;7.534;2023-06-22T07:17:58;16.17;;;8.65;;
79543;SDS011;68994;47.176;7.534;2023-06-22T07:20:24;17.27;;;8.15;;
79543;SDS011;68994;47.176;7.534;2023-06-22T07:22:51;17.27;;;8.73;;
79543;SDS011;68994;47.176;7.534;2023-06-22T07:25:18;12.63;;;7.72;;
79543;SDS011;68994;47.176;7.534;2023-06-22T07:27:46;13.15;;;7.68;;
79543;SDS011;68994;47.176;7.534;2023-06-22T07:30:23;17.35;;;9.10;;
79543;SDS011;68994;47.176;7.534;2023-06-22T07:32:50;16.20;;;8.75;;
79543;SDS011;68994;47.176;7.534;2023-06-22T07:35:17;12.85;;;7.35;;
79543;SDS011;68994;47.176;7.534;2023-06-22T07:37:44;13.48;;;8.57;;
79543;SDS011;68994;47.176;7.534;2023-06-22T07:40:11;16.63;;;8.30;;
79543;SDS011;68994;47.176;7.534;2023-06-22T07:42:38;15.35;;;7.97;;
79543;SDS011;68994;47.176;7.534;2023-06-22T07:45:06;18.38;;;8.50;;
79543;SDS011;68994;47.176;7.534;2023-06-22T07:47:34;13.90;;;6.90;;
79543;SDS011;68994;47.176;7.534;2023-06-22T07:50:01;17.73;;;7.20;;
79543;SDS011;68994;47.176;7.534;2023-06-22T07:52:29;13.65;;;7.38;;
79543;SDS011;68994;47.176;7.534;2023-06-22T07:54:57;12.48;;;8.07;;
79543;SDS011;68994;47.176;7.534;2023-06-22T07:57:24;15.27;;;8.30;;
79543;SDS011;68994;47.176;7.534;2023-06-22T07:59:57;14.45;;;8.45;;
79543;SDS011;68994;47.176;7.534;2023-06-22T08:02:25;15.10;;;9.23;;
79543;SDS011;68994;47.176;7.534;2023-06-22T08:04:51;14.70;;;8.73;;
79543;SDS011;68994;47.176;7.534;2023-06-22T08:07:18;14.27;;;8.40;;
79543;SDS011;68994;47.176;7.534;2023-06-22T08:09:45;15.32;;;8.30;;
79543;SDS011;68994;47.176;7.534;2023-06-22T08:12:14;15.38;;;8.15;;
79543;SDS011;68994;47.176;7.534;2023-06-22T08:14:41;14.85;;;7.97;;
79543;SDS011;68994;47.176;7.534;2023-06-22T08:17:08;12.52;;;7.10;;
79543;SDS011;68994;47.176;7.534;2023-06-22T08:19:39;17.88;;;9.07;;
79543;SDS011;68994;47.176;7.534;2023-06-22T08:22:06;19.60;;;8.85;;
79543;SDS011;68994;47.176;7.534;2023-06-22T08:24:33;18.08;;;9.07;;
79543;SDS011;68994;47.176;7.534;2023-06-22T08:27:00;13.18;;;8.65;;
79543;SDS011;68994;47.176;7.534;2023-06-22T08:29:26;13.23;;;8.45;;
79543;SDS011;68994;47.176;7.534;2023-06-22T08:31:53;16.08;;;8.30;;
79543;SDS011;68994;47.176;7.534;2023-06-22T08:34:19;16.67;;;7.82;;
79543;SDS011;68994;47.176;7.534;2023-06-22T08:36:49;12.40;;;8.38;;
79543;SDS011;68994;47.176;7.534;2023-06-22T08:39:16;16.38;;;8.63;;
79543;SDS011;68994;47.176;7.534;2023-06-22T08:41:43;14.90;;;8.90;;
79543;SDS011;68994;47.176;7.534;2023-06-22T08:44:10;19.38;;;8.45;;
79543;SDS011;68994;47.176;7.534;2023-06-22T08:46:36;19.70;;;8.65;;
79543;SDS011;68994;47.176;7.534;2023-06-22T08:49:05;13.45;;;7.53;;
79543;SDS011;68994;47.176;7.534;2023-06-22T08:51:31;12.85;;;8.20;;
79543;SDS011;68994;47.176;7.534;2023-06-22T08:54:00;14.02;;;9.02;;
79543;SDS011;68994;47.176;7.534;2023-06-22T08:56:26;16.08;;;7.93;;
79543;SDS011;68994;47.176;7.534;2023-06-22T08:58:53;13.85;;;7.57;;
79543;SDS011;68994;47.176;7.534;2023-06-22T09:01:20;16.80;;;8.13;;
79543;SDS011;68994;47.176;7.534;2023-06-22T09:03:46;15.40;;;8.07;;
79543;SDS011;68994;47.176;7.534;2023-06-22T09:06:19;12.70;;;7.25;;
79543;SDS011;68994;47.176;7.534;2023-06-22T09:08:45;14.38;;;9.13;;
79543;SDS011;68994;47.176;7.534;2023-06-22T09:11:13;14.70;;;8.38;;
79543;SDS011;68994;47.176;7.534;2023-06-22T09:13:40;13.52;;;7.70;;
79543;SDS011;68994;47.176;7.534;2023-06-22T09:16:07;17.95;;;9.25;;
79543;SDS011;68994;47.176;7.534;2023-06-22T09:18:34;17.25;;;8.73;;
79543;SDS011;68994;47.176;7.534;2023-06-22T09:21:01;15.88;;;8.63;;
79543;SDS011;68994;47.176;7.534;2023-06-22T09:23:28;14.18;;;8.18;;
79543;SDS011;68994;47.176;7.534;2023-06-22T09:25:55;10.48;;;7.30;;
79543;SDS011;68994;47.176;7.534;2023-06-22T09:28:23;11.77;;;7.30;;
79543;SDS011;68994;47.176;7.534;2023-06-22T09:30:49;14.68;;;7.93;;
79543;SDS011;68994;47.176;7.534;2023-06-22T09:33:16;12.32;;;6.90;;
79543;SDS011;68994;47.176;7.534;2023-06-22T09:35:44;11.48;;;7.00;;
79543;SDS011;68994;47.176;7.534;2023-06-22T09:38:11;13.38;;;6.97;;
79543;SDS011;68994;47.176;7.534;2023-06-22T09:40:37;11.80;;;7.00;;
79543;SDS011;68994;47.176;7.534;2023-06-22T09:43:05;12.25;;;8.45;;
79543;SDS011;68994;47.176;7.534;2023-06-22T09:45:33;12.82;;;7.55;;
79543;SDS011;68994;47.176;7.534;2023-06-22T09:47:59;10.90;;;7.07;;
79543;SDS011;68994;47.176;7.534;2023-06-22T09:50:26;14.57;;;7.10;;
79543;SDS011;68994;47.176;7.534;2023-06-22T09:52:52;14.70;;;7.28;;
79543;SDS011;68994;47.176;7.534;2023-06-22T09:55:20;13.40;;;9.30;;
79543;SDS011;68994;47.176;7.534;2023-06-22T09:57:46;18.58;;;9.52;;
79543;SDS011;68994;47.176;7.534;2023-06-22T10:00:13;15.30;;;9.18;;
79543;SDS011;68994;47.176;7.534;2023-06-22T10:02:42;12.57;;;7.45;;
79543;SDS011;68994;47.176;7.534;2023-06-22T10:05:09;14.30;;;8.60;;
79543;SDS011;68994;47.176;7.534;2023-06-22T10:07:35;19.00;;;8.75;;
79543;SDS011;68994;47.176;7.534;2023-06-22T10:10:05;17.15;;;8.63;;
79543;SDS011;68994;47.176;7.534;2023-06-22T10:12:32;13.60;;;8.02;;
79543;SDS011;68994;47.176;7.534;2023-06-22T10:14:59;15.15;;;8.73;;
79543;SDS011;68994;47.176;7.534;2023-06-22T10:17:25;13.55;;;8.88;;
79543;SDS011;68994;47.176;7.534;2023-06-22T10:19:53;16.63;;;9.55;;
79543;SDS011;68994;47.176;7.534;2023-06-22T10:22:20;18.08;;;9.40;;
79543;SDS011;68994;47.176;7.534;2023-06-22T10:24:46;18.70;;;9.90;;
79543;SDS011;68994;47.176;7.534;2023-06-22T10:27:13;16.38;;;8.57;;
79543;SDS011;68994;47.176;7.534;2023-06-22T10:29:40;16.60;;;9.45;;
79543;SDS011;68994;47.176;7.534;2023-06-22T10:32:08;18.95;;;10.18;;
79543;SDS011;68994;47.176;7.534;2023-06-22T10:34:34;15.38;;;9.02;;
79543;SDS011;68994;47.176;7.534;2023-06-22T10:37:02;17.00;;;9.10;;
79543;SDS011;68994;47.176;7.534;2023-06-22T10:39:29;16.70;;;8.63;;
79543;SDS011;68994;47.176;7.534;2023-06-22T10:41:56;11.60;;;8.15;;
79543;SDS011;68994;47.176;7.534;2023-06-22T10:44:22;19.05;;;8.65;;
79543;SDS011;68994;47.176;7.534;2023-06-22T10:46:49;15.65;;;9.13;;
79543;SDS011;68994;47.176;7.534;2023-06-22T10:49:16;19.55;;;9.20;;
79543;SDS011;68994;47.176;7.534;2023-06-22T10:51:42;12.57;;;8.02;;
79543;SDS011;68994;47.176;7.534;2023-06-22T10:54:10;14.63;;;8.05;;
79543;SDS011;68994;47.176;7.534;2023-06-22T10:56:38;16.38;;;9.10;;
79543;SDS011;68994;47.176;7.534;2023-06-22T10:59:05;14.38;;;6.95;;
79543;SDS011;68994;47.176;7.534;2023-06-22T11:01:32;13.52;;;8.38;;
79543;SDS011;68994;47.176;7.534;2023-06-22T11:03:59;11.88;;;7.28;;
79543;SDS011;68994;47.176;7.534;2023-06-22T11:06:25;13.18;;;7.40;;
79543;SDS011;68994;47.176;7.534;2023-06-22T11:08:52;12.15;;;7.22;;
79543;SDS011;68994;47.176;7.534;2023-06-22T11:11:20;14.55;;;8.05;;
79543;SDS011;68994;47.176;7.534;2023-06-22T11:13:46;14.02;;;8.25;;
79543;SDS011;68994;47.176;7.534;2023-06-22T11:16:13;13.82;;;7.80;;
79543;SDS011;68994;47.176;7.534;2023-06-22T11:18:41;17.98;;;8.25;;
79543;SDS011;68994;47.176;7.534;2023-06-22T11:21:07;18.17;;;8.88;;
79543;SDS011;68994;47.176;7.534;2023-06-22T11:23:34;12.30;;;7.85;;
79543;SDS011;68994;47.176;7.534;2023-06-22T11:26:00;15.55;;;8.10;;
79543;SDS011;68994;47.176;7.534;2023-06-22T11:28:28;19.17;;;9.13;;
79543;SDS011;68994;47.176;7.534;2023-06-22T11:30:55;14.80;;;9.07;;
79543;SDS011;68994;47.176;7.534;2023-06-22T11:33:21;16.33;;;9.70;;
79543;SDS011;68994;47.176;7.534;2023-06-22T11:35:48;17.70;;;8.90;;
79543;SDS011;68994;47.176;7.534;2023-06-22T11:38:14;17.63;;;8.57;;
79543;SDS011;68994;47.176;7.534;2023-06-22T11:40:42;17.27;;;7.93;;
79543;SDS011;68994;47.176;7.534;2023-06-22T11:43:08;14.40;;;8.10;;
79543;SDS011;68994;47.176;7.534;2023-06-22T11:45:36;16.45;;;8.57;;
79543;SDS011;68994;47.176;7.534;2023-06-22T11:48:03;15.27;;;8.00;;
79543;SDS011;68994;47.176;7.534;2023-06-22T11:50:30;14.43;;;9.10;;
79543;SDS011;68994;47.176;7.534;2023-06-22T11:53:00;15.82;;;9.48;;
79543;SDS011;68994;47.176;7.534;2023-06-22T11:55:28;13.88;;;8.60;;
79543;SDS011;68994;47.176;7.534;2023-06-22T11:57:55;15.02;;;8.68;;
79543;SDS011;68994;47.176;7.534;2023-06-22T12:00:25;14.27;;;8.52;;
79543;SDS011;68994;47.176;7.534;2023-06-22T12:02:53;14.20;;;8.77;;
79543;SDS011;68994;47.176;7.534;2023-06-22T12:05:19;12.20;;;7.93;;
79543;SDS011;68994;47.176;7.534;2023-06-22T12:10:13;14.23;;;9.02;;
79543;SDS011;68994;47.176;7.534;2023-06-22T12:12:40;16.75;;;9.20;;
79543;SDS011;68994;47.176;7.534;2023-06-22T12:15:08;15.43;;;8.52;;
79543;SDS011;68994;47.176;7.534;2023-06-22T12:17:36;16.13;;;8.98;;
79543;SDS011;68994;47.176;7.534;2023-06-22T12:20:04;18.67;;;9.32;;
79543;SDS011;68994;47.176;7.534;2023-06-22T12:22:33;14.82;;;8.90;;
79543;SDS011;68994;47.176;7.534;2023-06-22T12:25:00;18.38;;;9.13;;
79543;SDS011;68994;47.176;7.534;2023-06-22T12:27:26;18.73;;;10.18;;
79543;SDS011;68994;47.176;7.534;2023-06-22T12:29:55;15.25;;;8.95;;
79543;SDS011;68994;47.176;7.534;2023-06-22T12:32:22;20.73;;;9.77;;
79543;SDS011;68994;47.176;7.534;2023-06-22T12:34:49;20.40;;;10.95;;
79543;SDS011;68994;47.176;7.534;2023-06-22T12:37:17;16.55;;;9.43;;
79543;SDS011;68994;47.176;7.534;2023-06-22T12:39:44;18.08;;;9.35;;
79543;SDS011;68994;47.176;7.534;2023-06-22T12:42:10;12.00;;;7.80;;
79543;SDS011;68994;47.176;7.534;2023-06-22T12:44:37;16.30;;;8.50;;
79543;SDS011;68994;47.176;7.534;2023-06-22T12:47:05;16.80;;;8.25;;
79543;SDS011;68994;47.176;7.534;2023-06-22T12:49:33;15.23;;;8.50;;
79543;SDS011;68994;47.176;7.534;2023-06-22T12:52:00;15.57;;;6.03;;
79543;SDS011;68994;47.176;7.534;2023-06-22T12:54:28;11.57;;;5.00;;
79543;SDS011;68994;47.176;7.534;2023-06-22T12:56:54;12.25;;;4.65;;
79543;SDS011;68994;47.176;7.534;2023-06-22T12:59:21;10.55;;;5.03;;
79543;SDS011;68994;47.176;7.534;2023-06-22T13:01:47;9.45;;;4.68;;
79543;SDS011;68994;47.176;7.534;2023-06-22T13:04:14;9.48;;;4.28;;
79543;SDS011;68994;47.176;7.534;2023-06-22T13:06:40;9.15;;;4.53;;
79543;SDS011;68994;47.176;7.534;2023-06-22T13:09:08;9.88;;;4.78;;
79543;SDS011;68994;47.176;7.534;2023-06-22T13:11:37;10.88;;;5.75;;
79543;SDS011;68994;47.176;7.534;2023-06-22T13:14:04;11.18;;;5.28;;
79543;SDS011;68994;47.176;7.534;2023-06-22T13:16:31;15.90;;;5.78;;
79543;SDS011;68994;47.176;7.534;2023-06-22T13:18:57;11.18;;;4.72;;
79543;SDS011;68994;47.176;7.534;2023-06-22T13:21:24;6.97;;;4.53;;
79543;SDS011;68994;47.176;7.534;2023-06-22T13:23:50;13.80;;;5.45;;
79543;SDS011;68994;47.176;7.534;2023-06-22T13:26:17;13.52;;;5.43;;
79543;SDS011;68994;47.176;7.534;2023-06-22T13:28:45;10.05;;;5.22;;
79543;SDS011;68994;47.176;7.534;2023-06-22T13:31:11;8.95;;;5.00;;
79543;SDS011;68994;47.176;7.534;2023-06-22T13:33:38;13.98;;;5.25;;
79543;SDS011;68994;47.176;7.534;2023-06-22T13:36:09;14.23;;;5.03;;
79543;SDS011;68994;47.176;7.534;2023-06-22T13:38:36;10.70;;;5.47;;
79543;SDS011;68994;47.176;7.534;2023-06-22T13:41:03;8.75;;;5.25;;
79543;SDS011;68994;47.176;7.534;2023-06-22T13:43:30;10.10;;;5.25;;
79543;SDS011;68994;47.176;7.534;2023-06-22T13:45:58;13.82;;;6.43;;
79543;SDS011;68994;47.176;7.534;2023-06-22T13:48:25;9.77;;;5.70;;
79543;SDS011;68994;47.176;7.534;2023-06-22T13:50:53;12.40;;;5.65;;
79543;SDS011;68994;47.176;7.534;2023-06-22T13:53:20;13.85;;;7.88;;
79543;SDS011;68994;47.176;7.534;2023-06-22T13:55:46;19.42;;;6.47;;
79543;SDS011;68994;47.176;7.534;2023-06-22T13:58:13;13.23;;;6.22;;
79543;SDS011;68994;47.176;7.534;2023-06-22T14:00:40;13.43;;;5.40;;
79543;SDS011;68994;47.176;7.534;2023-06-22T14:03:08;12.38;;;6.03;;
79543;SDS011;68994;47.176;7.534;2023-06-22T14:05:34;9.30;;;4.25;;
79543;SDS011;68994;47.176;7.534;2023-06-22T14:08:01;9.27;;;4.25;;
79543;SDS011;68994;47.176;7.534;2023-06-22T14:10:28;10.23;;;5.45;;
79543;SDS011;68994;47.176;7.534;2023-06-22T14:12:54;9.93;;;5.53;;
79543;SDS011;68994;47.176;7.534;2023-06-22T14:15:21;11.48;;;4.53;;
79543;SDS011;68994;47.176;7.534;2023-06-22T14:17:47;14.35;;;5.38;;
79543;SDS011;68994;47.176;7.534;2023-06-22T14:20:16;13.55;;;4.97;;
79543;SDS011;68994;47.176;7.534;2023-06-22T14:22:42;12.48;;;4.93;;
79543;SDS011;68994;47.176;7.534;2023-06-22T14:25:09;11.52;;;6.05;;
79543;SDS011;68994;47.176;7.534;2023-06-22T14:27:35;14.35;;;4.80;;
79543;SDS011;68994;47.176;7.534;2023-06-22T14:30:02;9.73;;;4.03;;
79543;SDS011;68994;47.176;7.534;2023-06-22T14:32:29;9.05;;;4.05;;
79543;SDS011;68994;47.176;7.534;2023-06-22T14:34:55;7.80;;;3.80;;
79543;SDS011;68994;47.176;7.534;2023-06-22T14:37:23;16.23;;;4.97;;
79543;SDS011;68994;47.176;7.534;2023-06-22T14:39:50;11.50;;;5.35;;
79543;SDS011;68994;47.176;7.534;2023-06-22T14:42:17;8.70;;;4.88;;
79543;SDS011;68994;47.176;7.534;2023-06-22T14:44:43;12.30;;;4.50;;
79543;SDS011;68994;47.176;7.534;2023-06-22T14:47:10;12.98;;;4.93;;